createdAt,value
2018-12-25T00:00:02.534Z,784.43
2018-12-25T00:00:06.827Z,784.41
2018-12-25T00:00:11.121Z,784.43
2018-12-25T00:00:15.387Z,784.43
2018-12-25T00:00:19.686Z,784.45
2018-12-25T00:00:23.978Z,784.42
2018-12-25T00:00:28.263Z,784.39
2018-12-25T00:00:32.550Z,784.41
2018-12-25T00:00:36.839Z,784.38
2018-12-25T00:00:41.129Z,784.4
2018-12-25T00:00:45.536Z,784.41
2018-12-25T00:00:49.827Z,784.42
2018-12-25T00:00:54.111Z,784.39
2018-12-25T00:00:58.394Z,784.37
2018-12-25T00:01:02.680Z,784.42
2018-12-25T00:01:07.065Z,784.42
2018-12-25T00:01:11.371Z,784.43
2018-12-25T00:01:15.672Z,784.41
2018-12-25T00:01:19.967Z,784.4
2018-12-25T00:01:24.361Z,784.41
2018-12-25T00:01:28.645Z,784.41
2018-12-25T00:01:32.930Z,784.44
2018-12-25T00:01:37.221Z,784.42
2018-12-25T00:01:41.612Z,784.41
2018-12-25T00:01:45.919Z,784.45
2018-12-25T00:01:50.279Z,784.44
2018-12-25T00:01:54.569Z,784.44
2018-12-25T00:01:58.858Z,784.43
2018-12-25T00:02:03.156Z,784.44
2018-12-25T00:02:07.445Z,784.44
2018-12-25T00:02:11.734Z,784.46
2018-12-25T00:02:16.025Z,784.43
2018-12-25T00:02:20.313Z,784.46
2018-12-25T00:02:24.609Z,784.46
2018-12-25T00:02:28.895Z,784.47
2018-12-25T00:02:33.190Z,784.46
2018-12-25T00:02:37.482Z,784.47
2018-12-25T00:02:41.806Z,784.46
2018-12-25T00:02:46.104Z,784.47
2018-12-25T00:02:50.400Z,784.45
2018-12-25T00:02:54.695Z,784.43
2018-12-25T00:02:58.985Z,784.46
2018-12-25T00:03:03.279Z,784.5
2018-12-25T00:03:07.573Z,784.48
2018-12-25T00:03:11.775Z,784.48
2018-12-25T00:03:16.071Z,784.5
2018-12-25T00:03:20.364Z,784.5
2018-12-25T00:03:24.555Z,784.48
2018-12-25T00:03:28.844Z,784.48
2018-12-25T00:03:33.137Z,784.49
2018-12-25T00:03:37.332Z,784.43
2018-12-25T00:03:41.624Z,784.46
2018-12-25T00:03:45.924Z,784.46
2018-12-25T00:03:50.216Z,784.47
2018-12-25T00:03:54.407Z,784.47
2018-12-25T00:03:58.499Z,784.5
2018-12-25T00:04:02.787Z,784.5
2018-12-25T00:04:07.082Z,784.48
2018-12-25T00:04:11.559Z,784.43
2018-12-25T00:04:15.845Z,784.41
2018-12-25T00:04:20.199Z,784.41
2018-12-25T00:04:24.395Z,784.47
2018-12-25T00:04:28.681Z,784.49
2018-12-25T00:04:32.984Z,784.47
2018-12-25T00:04:37.274Z,784.46
2018-12-25T00:04:41.557Z,784.47
2018-12-25T00:04:45.847Z,784.46
2018-12-25T00:04:50.162Z,784.47
2018-12-25T00:04:54.449Z,784.49
2018-12-25T00:04:58.646Z,784.5
2018-12-25T00:05:03.062Z,784.51
2018-12-25T00:05:07.359Z,784.47
2018-12-25T00:05:11.649Z,784.48
2018-12-25T00:05:15.939Z,784.51
2018-12-25T00:05:20.227Z,784.51
2018-12-25T00:05:24.515Z,784.5
2018-12-25T00:05:28.833Z,784.49
2018-12-25T00:05:33.123Z,784.49
2018-12-25T00:05:37.316Z,784.51
2018-12-25T00:05:41.608Z,784.51
2018-12-25T00:05:45.796Z,784.47
2018-12-25T00:05:50.092Z,784.53
2018-12-25T00:05:54.282Z,784.49
2018-12-25T00:05:58.592Z,784.52
2018-12-25T00:06:02.880Z,784.47
2018-12-25T00:06:07.269Z,784.48
2018-12-25T00:06:11.563Z,784.45
2018-12-25T00:06:15.929Z,784.51
2018-12-25T00:06:20.220Z,784.56
2018-12-25T00:06:24.508Z,784.49
2018-12-25T00:06:28.799Z,784.5
2018-12-25T00:06:33.092Z,784.5
2018-12-25T00:06:37.384Z,784.54
2018-12-25T00:06:41.671Z,784.53
2018-12-25T00:06:47.782Z,784.53
2018-12-25T00:06:52.109Z,784.53
2018-12-25T00:06:56.324Z,784.5
2018-12-25T00:07:00.610Z,784.5
2018-12-25T00:07:04.901Z,784.47
2018-12-25T00:07:09.196Z,784.5
2018-12-25T00:07:13.489Z,784.52
2018-12-25T00:07:17.790Z,784.54
2018-12-25T00:07:22.075Z,784.51
2018-12-25T00:07:26.381Z,784.5
2018-12-25T00:07:30.580Z,784.52
2018-12-25T00:07:34.875Z,784.55
2018-12-25T00:07:39.174Z,784.53
2018-12-25T00:07:43.462Z,784.55
2018-12-25T00:07:47.749Z,784.51
2018-12-25T00:07:52.037Z,784.53
2018-12-25T00:07:56.241Z,784.52
2018-12-25T00:08:00.540Z,784.52
2018-12-25T00:08:04.830Z,784.56
2018-12-25T00:08:09.099Z,784.55
2018-12-25T00:08:13.384Z,784.54
2018-12-25T00:08:17.680Z,784.55
2018-12-25T00:08:21.970Z,784.53
2018-12-25T00:08:26.257Z,784.53
2018-12-25T00:08:30.550Z,784.52
2018-12-25T00:08:34.833Z,784.56
2018-12-25T00:08:39.122Z,784.55
2018-12-25T00:08:43.408Z,784.57
2018-12-25T00:08:47.758Z,784.57
2018-12-25T00:08:52.053Z,784.54
2018-12-25T00:08:56.344Z,784.57
2018-12-25T00:09:00.633Z,784.58
2018-12-25T00:09:04.941Z,784.59
2018-12-25T00:09:09.241Z,784.62
2018-12-25T00:09:13.523Z,784.62
2018-12-25T00:09:17.811Z,784.59
2018-12-25T00:09:22.112Z,784.62
2018-12-25T00:09:26.399Z,784.6
2018-12-25T00:09:30.696Z,784.63
2018-12-25T00:09:34.899Z,784.63
2018-12-25T00:09:39.190Z,784.6
2018-12-25T00:09:43.383Z,784.61
2018-12-25T00:09:47.671Z,784.61
2018-12-25T00:09:51.965Z,784.59
2018-12-25T00:09:56.162Z,784.6
2018-12-25T00:10:00.459Z,784.57
2018-12-25T00:10:04.761Z,784.61
2018-12-25T00:10:09.060Z,784.62
2018-12-25T00:10:13.256Z,784.64
2018-12-25T00:10:17.640Z,784.64
2018-12-25T00:10:21.938Z,784.65
2018-12-25T00:10:26.221Z,784.64
2018-12-25T00:10:30.507Z,784.61
2018-12-25T00:10:34.798Z,784.58
2018-12-25T00:10:39.109Z,784.6
2018-12-25T00:10:43.392Z,784.58
2018-12-25T00:10:47.680Z,784.61
2018-12-25T00:10:51.970Z,784.63
2018-12-25T00:10:56.265Z,784.62
2018-12-25T00:11:00.554Z,784.65
2018-12-25T00:11:04.842Z,784.6
2018-12-25T00:11:09.041Z,784.59
2018-12-25T00:11:13.334Z,784.61
2018-12-25T00:11:17.623Z,784.57
2018-12-25T00:11:21.917Z,784.64
2018-12-25T00:11:26.206Z,784.66
2018-12-25T00:11:30.498Z,784.66
2018-12-25T00:11:34.686Z,784.63
2018-12-25T00:11:38.977Z,784.64
2018-12-25T00:11:43.272Z,784.64
2018-12-25T00:11:47.562Z,784.63
2018-12-25T00:11:51.765Z,784.66
2018-12-25T00:11:56.051Z,784.65
2018-12-25T00:12:00.338Z,784.6
2018-12-25T00:12:04.684Z,784.62
2018-12-25T00:12:08.974Z,784.64
2018-12-25T00:12:13.263Z,784.62
2018-12-25T00:12:17.549Z,784.65
2018-12-25T00:12:21.835Z,784.61
2018-12-25T00:12:26.127Z,784.63
2018-12-25T00:12:30.410Z,784.69
2018-12-25T00:12:34.706Z,784.68
2018-12-25T00:12:38.996Z,784.69
2018-12-25T00:12:43.413Z,784.67
2018-12-25T00:12:47.703Z,784.66
2018-12-25T00:12:51.988Z,784.63
2018-12-25T00:12:56.278Z,784.67
2018-12-25T00:13:00.487Z,784.67
2018-12-25T00:13:04.771Z,784.69
2018-12-25T00:13:09.068Z,784.65
2018-12-25T00:13:13.362Z,784.67
2018-12-25T00:13:17.651Z,784.67
2018-12-25T00:13:21.839Z,784.62
2018-12-25T00:13:26.128Z,784.68
2018-12-25T00:13:30.414Z,784.7
2018-12-25T00:13:34.697Z,784.7
2018-12-25T00:13:39.083Z,784.68
2018-12-25T00:13:43.367Z,784.69
2018-12-25T00:13:47.668Z,784.7
2018-12-25T00:13:51.956Z,784.7
2018-12-25T00:13:56.242Z,784.71
2018-12-25T00:14:00.527Z,784.7
2018-12-25T00:14:06.981Z,784.72
2018-12-25T00:14:11.275Z,784.7
2018-12-25T00:14:15.579Z,784.7
2018-12-25T00:14:19.773Z,784.74
2018-12-25T00:14:24.062Z,784.71
2018-12-25T00:14:28.378Z,784.74
2018-12-25T00:14:32.682Z,784.71
2018-12-25T00:14:36.977Z,784.74
2018-12-25T00:14:41.172Z,784.74
2018-12-25T00:14:45.466Z,784.72
2018-12-25T00:14:49.757Z,784.74
2018-12-25T00:14:54.050Z,784.76
2018-12-25T00:14:58.341Z,784.76
2018-12-25T00:15:02.540Z,784.74
2018-12-25T00:15:06.830Z,784.73
2018-12-25T00:15:11.128Z,784.7
2018-12-25T00:15:15.462Z,784.73
2018-12-25T00:15:19.753Z,784.76
2018-12-25T00:15:24.041Z,784.73
2018-12-25T00:15:28.338Z,784.77
2018-12-25T00:15:32.653Z,784.79
2018-12-25T00:15:36.847Z,784.74
2018-12-25T00:15:41.138Z,784.73
2018-12-25T00:15:45.431Z,784.72
2018-12-25T00:15:49.719Z,784.73
2018-12-25T00:15:53.920Z,784.78
2018-12-25T00:15:58.211Z,784.76
2018-12-25T00:16:02.503Z,784.8
2018-12-25T00:16:06.791Z,784.78
2018-12-25T00:16:11.084Z,784.76
2018-12-25T00:16:15.378Z,784.75
2018-12-25T00:16:19.767Z,784.77
2018-12-25T00:16:24.062Z,784.75
2018-12-25T00:16:28.355Z,784.76
2018-12-25T00:16:32.639Z,784.74
2018-12-25T00:16:36.954Z,784.76
2018-12-25T00:16:41.249Z,784.76
2018-12-25T00:16:45.539Z,784.73
2018-12-25T00:16:49.834Z,784.74
2018-12-25T00:16:54.128Z,784.76
2018-12-25T00:16:58.416Z,784.69
2018-12-25T00:17:02.703Z,784.68
2018-12-25T00:17:07.007Z,784.66
2018-12-25T00:17:11.239Z,784.65
2018-12-25T00:17:15.530Z,784.7
2018-12-25T00:17:19.932Z,784.68
2018-12-25T00:17:24.222Z,784.69
2018-12-25T00:17:28.511Z,784.69
2018-12-25T00:17:32.798Z,784.71
2018-12-25T00:17:36.985Z,784.68
2018-12-25T00:17:41.275Z,784.69
2018-12-25T00:17:45.559Z,784.68
2018-12-25T00:17:49.844Z,784.68
2018-12-25T00:17:54.035Z,784.7
2018-12-25T00:17:58.228Z,784.75
2018-12-25T00:18:02.434Z,784.71
2018-12-25T00:18:06.727Z,784.75
2018-12-25T00:18:11.033Z,784.74
2018-12-25T00:18:15.322Z,784.77
2018-12-25T00:18:19.612Z,784.73
2018-12-25T00:18:23.705Z,784.74
2018-12-25T00:18:27.888Z,784.7
2018-12-25T00:18:32.181Z,784.69
2018-12-25T00:18:36.383Z,784.71
2018-12-25T00:18:40.574Z,784.71
2018-12-25T00:18:44.864Z,784.72
2018-12-25T00:18:49.149Z,784.69
2018-12-25T00:18:53.339Z,784.73
2018-12-25T00:19:05.914Z,784.72
2018-12-25T00:19:10.334Z,784.7
2018-12-25T00:19:14.623Z,784.72
2018-12-25T00:19:18.911Z,784.71
2018-12-25T00:19:23.202Z,784.7
2018-12-25T00:19:27.485Z,784.69
2018-12-25T00:19:31.773Z,784.68
2018-12-25T00:19:36.058Z,784.68
2018-12-25T00:19:40.362Z,784.7
2018-12-25T00:19:44.656Z,784.7
2018-12-25T00:19:48.935Z,784.71
2018-12-25T00:19:53.333Z,784.69
2018-12-25T00:19:57.629Z,784.69
2018-12-25T00:20:01.935Z,784.71
2018-12-25T00:20:06.224Z,784.72
2018-12-25T00:20:10.523Z,784.69
2018-12-25T00:20:14.809Z,784.73
2018-12-25T00:20:18.994Z,784.75
2018-12-25T00:20:23.278Z,784.71
2018-12-25T00:20:27.472Z,784.67
2018-12-25T00:20:33.311Z,784.71
2018-12-25T00:20:37.758Z,784.7
2018-12-25T00:20:41.957Z,784.71
2018-12-25T00:20:46.162Z,784.74
2018-12-25T00:20:50.452Z,784.71
2018-12-25T00:20:54.747Z,784.7
2018-12-25T00:20:59.131Z,784.71
2018-12-25T00:21:03.526Z,784.7
2018-12-25T00:21:07.817Z,784.73
2018-12-25T00:21:12.115Z,784.71
2018-12-25T00:21:16.407Z,784.68
2018-12-25T00:21:20.601Z,784.66
2018-12-25T00:21:24.894Z,784.66
2018-12-25T00:21:29.186Z,784.71
2018-12-25T00:21:33.479Z,784.72
2018-12-25T00:21:37.665Z,784.76
2018-12-25T00:21:41.951Z,784.72
2018-12-25T00:21:46.252Z,784.73
2018-12-25T00:21:50.545Z,784.72
2018-12-25T00:21:54.831Z,784.74
2018-12-25T00:21:59.119Z,784.72
2018-12-25T00:22:03.408Z,784.74
2018-12-25T00:22:07.707Z,784.74
2018-12-25T00:22:11.996Z,784.73
2018-12-25T00:22:16.286Z,784.73
2018-12-25T00:22:20.576Z,784.71
2018-12-25T00:22:24.986Z,784.68
2018-12-25T00:22:29.276Z,784.71
2018-12-25T00:22:33.562Z,784.74
2018-12-25T00:22:37.854Z,784.75
2018-12-25T00:22:42.140Z,784.76
2018-12-25T00:22:46.431Z,784.71
2018-12-25T00:22:50.730Z,784.73
2018-12-25T00:22:55.017Z,784.71
2018-12-25T00:22:59.310Z,784.74
2018-12-25T00:23:03.659Z,784.74
2018-12-25T00:23:07.871Z,784.72
2018-12-25T00:23:12.162Z,784.75
2018-12-25T00:23:16.453Z,784.75
2018-12-25T00:23:20.745Z,784.74
2018-12-25T00:23:25.036Z,784.72
2018-12-25T00:23:29.321Z,784.75
2018-12-25T00:23:33.606Z,784.75
2018-12-25T00:23:37.892Z,784.76
2018-12-25T00:23:42.264Z,784.72
2018-12-25T00:23:46.557Z,784.75
2018-12-25T00:23:50.844Z,784.76
2018-12-25T00:23:55.178Z,784.66
2018-12-25T00:23:59.377Z,784.73
2018-12-25T00:24:03.669Z,784.75
2018-12-25T00:24:07.962Z,784.74
2018-12-25T00:24:12.252Z,784.73
2018-12-25T00:24:16.545Z,784.73
2018-12-25T00:24:20.834Z,784.74
2018-12-25T00:24:25.129Z,784.74
2018-12-25T00:24:29.421Z,784.75
2018-12-25T00:24:33.712Z,784.75
2018-12-25T00:24:38.010Z,784.75
2018-12-25T00:24:42.299Z,784.79
2018-12-25T00:24:46.588Z,784.71
2018-12-25T00:24:50.880Z,784.72
2018-12-25T00:24:55.170Z,784.75
2018-12-25T00:24:59.458Z,784.77
2018-12-25T00:25:03.822Z,784.75
2018-12-25T00:25:08.113Z,784.73
2018-12-25T00:25:12.401Z,784.76
2018-12-25T00:25:16.687Z,784.76
2018-12-25T00:25:20.880Z,784.73
2018-12-25T00:25:25.167Z,784.72
2018-12-25T00:25:29.362Z,784.8
2018-12-25T00:25:33.645Z,784.75
2018-12-25T00:25:37.949Z,784.76
2018-12-25T00:25:42.239Z,784.7
2018-12-25T00:25:46.642Z,784.75
2018-12-25T00:25:50.932Z,784.77
2018-12-25T00:25:55.222Z,784.74
2018-12-25T00:25:59.608Z,784.72
2018-12-25T00:26:03.966Z,784.75
2018-12-25T00:26:08.154Z,784.71
2018-12-25T00:26:12.446Z,784.79
2018-12-25T00:26:16.831Z,784.79
2018-12-25T00:26:21.117Z,784.75
2018-12-25T00:26:25.366Z,784.76
2018-12-25T00:26:29.661Z,784.73
2018-12-25T00:26:33.948Z,784.74
2018-12-25T00:26:38.240Z,784.77
2018-12-25T00:26:42.426Z,784.76
2018-12-25T00:26:46.811Z,784.79
2018-12-25T00:26:51.000Z,784.76
2018-12-25T00:26:55.341Z,784.77
2018-12-25T00:26:59.634Z,784.77
2018-12-25T00:27:04.121Z,784.77
2018-12-25T00:27:08.419Z,784.74
2018-12-25T00:27:12.716Z,784.74
2018-12-25T00:27:17.001Z,784.76
2018-12-25T00:27:21.286Z,784.75
2018-12-25T00:27:25.480Z,784.73
2018-12-25T00:27:29.763Z,784.75
2018-12-25T00:27:34.049Z,784.73
2018-12-25T00:27:38.333Z,784.77
2018-12-25T00:27:42.616Z,784.75
2018-12-25T00:27:46.908Z,784.75
2018-12-25T00:27:51.198Z,784.74
2018-12-25T00:27:55.485Z,784.73
2018-12-25T00:27:59.782Z,784.74
2018-12-25T00:28:04.167Z,784.68
2018-12-25T00:28:08.458Z,784.7
2018-12-25T00:28:12.752Z,784.7
2018-12-25T00:28:17.035Z,784.68
2018-12-25T00:28:21.329Z,784.69
2018-12-25T00:28:25.619Z,784.7
2018-12-25T00:28:29.906Z,784.74
2018-12-25T00:28:34.193Z,784.72
2018-12-25T00:28:38.479Z,784.72
2018-12-25T00:28:42.794Z,784.73
2018-12-25T00:28:47.076Z,784.74
2018-12-25T00:28:51.362Z,784.75
2018-12-25T00:28:55.655Z,784.72
2018-12-25T00:28:59.966Z,784.72
2018-12-25T00:29:04.180Z,784.74
2018-12-25T00:29:08.578Z,784.71
2018-12-25T00:29:12.870Z,784.73
2018-12-25T00:29:17.160Z,784.72
2018-12-25T00:29:21.452Z,784.71
2018-12-25T00:29:25.756Z,784.75
2018-12-25T00:29:30.045Z,784.71
2018-12-25T00:29:34.335Z,784.74
2018-12-25T00:29:38.523Z,784.7
2018-12-25T00:29:42.712Z,784.74
2018-12-25T00:29:47.001Z,784.73
2018-12-25T00:29:51.288Z,784.71
2018-12-25T00:29:55.575Z,784.73
2018-12-25T00:29:59.875Z,784.74
2018-12-25T00:30:04.184Z,784.74
2018-12-25T00:30:08.477Z,784.78
2018-12-25T00:30:12.764Z,784.74
2018-12-25T00:30:17.051Z,784.72
2018-12-25T00:30:21.393Z,784.74
2018-12-25T00:30:25.583Z,784.75
2018-12-25T00:30:29.780Z,784.72
2018-12-25T00:30:34.071Z,784.72
2018-12-25T00:30:38.361Z,784.73
2018-12-25T00:30:42.646Z,784.74
2018-12-25T00:30:47.018Z,784.73
2018-12-25T00:30:51.310Z,784.73
2018-12-25T00:30:55.606Z,784.74
2018-12-25T00:30:59.892Z,784.73
2018-12-25T00:31:04.381Z,784.7
2018-12-25T00:31:08.671Z,784.74
2018-12-25T00:31:12.958Z,784.71
2018-12-25T00:31:17.245Z,784.72
2018-12-25T00:31:21.439Z,784.72
2018-12-25T00:31:25.726Z,784.71
2018-12-25T00:31:30.012Z,784.71
2018-12-25T00:31:34.305Z,784.7
2018-12-25T00:31:38.601Z,784.72
2018-12-25T00:31:42.903Z,784.7
2018-12-25T00:31:47.191Z,784.73
2018-12-25T00:31:51.483Z,784.68
2018-12-25T00:31:55.851Z,784.63
2018-12-25T00:32:00.143Z,784.66
2018-12-25T00:32:04.533Z,784.7
2018-12-25T00:32:08.731Z,784.72
2018-12-25T00:32:13.021Z,784.72
2018-12-25T00:32:17.315Z,784.71
2018-12-25T00:32:21.607Z,784.7
2018-12-25T00:32:25.891Z,784.7
2018-12-25T00:32:30.083Z,784.69
2018-12-25T00:32:34.270Z,784.71
2018-12-25T00:32:38.556Z,784.69
2018-12-25T00:32:42.851Z,784.69
2018-12-25T00:32:47.133Z,784.65
2018-12-25T00:32:51.421Z,784.69
2018-12-25T00:32:55.709Z,784.7
2018-12-25T00:33:00.000Z,784.67
2018-12-25T00:33:04.490Z,784.69
2018-12-25T00:33:08.777Z,784.67
2018-12-25T00:33:13.076Z,784.68
2018-12-25T00:33:17.362Z,784.67
2018-12-25T00:33:21.649Z,784.68
2018-12-25T00:33:25.932Z,784.7
2018-12-25T00:33:30.217Z,784.68
2018-12-25T00:33:34.504Z,784.68
2018-12-25T00:33:38.849Z,784.64
2018-12-25T00:33:43.141Z,784.65
2018-12-25T00:33:47.432Z,784.65
2018-12-25T00:33:51.622Z,784.7
2018-12-25T00:33:55.906Z,784.67
2018-12-25T00:34:00.190Z,784.64
2018-12-25T00:34:04.587Z,784.67
2018-12-25T00:34:08.874Z,784.65
2018-12-25T00:34:13.161Z,784.67
2018-12-25T00:34:17.446Z,784.67
2018-12-25T00:34:21.733Z,784.64
2018-12-25T00:34:26.018Z,784.64
2018-12-25T00:34:30.207Z,784.66
2018-12-25T00:34:34.494Z,784.65
2018-12-25T00:34:38.798Z,784.68
2018-12-25T00:34:43.135Z,784.68
2018-12-25T00:34:47.422Z,784.7
2018-12-25T00:34:51.622Z,784.68
2018-12-25T00:34:55.811Z,784.66
2018-12-25T00:35:00.269Z,784.66
2018-12-25T00:35:04.861Z,784.64
2018-12-25T00:35:09.153Z,784.68
2018-12-25T00:35:13.454Z,784.67
2018-12-25T00:35:17.740Z,784.65
2018-12-25T00:35:22.031Z,784.65
2018-12-25T00:35:26.315Z,784.63
2018-12-25T00:35:30.610Z,784.65
2018-12-25T00:35:34.897Z,784.64
2018-12-25T00:35:39.181Z,784.61
2018-12-25T00:35:43.369Z,784.64
2018-12-25T00:35:47.658Z,784.67
2018-12-25T00:35:51.945Z,784.63
2018-12-25T00:35:56.231Z,784.61
2018-12-25T00:36:00.327Z,784.65
2018-12-25T00:36:04.714Z,784.59
2018-12-25T00:36:09.004Z,784.56
2018-12-25T00:36:13.294Z,784.6
2018-12-25T00:36:17.600Z,784.53
2018-12-25T00:36:21.795Z,784.58
2018-12-25T00:36:26.083Z,784.55
2018-12-25T00:36:30.273Z,784.58
2018-12-25T00:36:34.564Z,784.58
2018-12-25T00:36:38.848Z,784.64
2018-12-25T00:36:43.143Z,784.59
2018-12-25T00:36:47.435Z,784.6
2018-12-25T00:36:51.722Z,784.59
2018-12-25T00:36:56.010Z,784.56
2018-12-25T00:37:00.298Z,784.58
2018-12-25T00:37:04.589Z,784.56
2018-12-25T00:37:08.871Z,784.58
2018-12-25T00:37:13.166Z,784.55
2018-12-25T00:37:17.454Z,784.57
2018-12-25T00:37:21.689Z,784.57
2018-12-25T00:37:25.980Z,784.55
2018-12-25T00:37:30.273Z,784.56
2018-12-25T00:37:34.559Z,784.57
2018-12-25T00:37:38.748Z,784.51
2018-12-25T00:37:43.040Z,784.54
2018-12-25T00:37:47.322Z,784.53
2018-12-25T00:37:51.608Z,784.49
2018-12-25T00:37:55.898Z,784.51
2018-12-25T00:38:00.093Z,784.56
2018-12-25T00:38:04.378Z,784.53
2018-12-25T00:38:08.667Z,784.53
2018-12-25T00:38:12.958Z,784.52
2018-12-25T00:38:17.248Z,784.51
2018-12-25T00:38:21.539Z,784.51
2018-12-25T00:38:25.832Z,784.45
2018-12-25T00:38:30.227Z,784.45
2018-12-25T00:38:34.514Z,784.45
2018-12-25T00:38:38.902Z,784.52
2018-12-25T00:38:43.189Z,784.52
2018-12-25T00:38:47.478Z,784.5
2018-12-25T00:38:51.764Z,784.51
2018-12-25T00:38:55.960Z,784.47
2018-12-25T00:39:00.246Z,784.48
2018-12-25T00:39:04.679Z,784.48
2018-12-25T00:39:08.958Z,784.48
2018-12-25T00:39:13.247Z,784.47
2018-12-25T00:39:17.602Z,784.51
2018-12-25T00:39:21.887Z,784.49
2018-12-25T00:39:26.269Z,784.49
2018-12-25T00:39:30.556Z,784.49
2018-12-25T00:39:34.845Z,784.41
2018-12-25T00:39:39.130Z,784.43
2018-12-25T00:39:43.416Z,784.45
2018-12-25T00:39:47.713Z,784.46
2018-12-25T00:39:52.005Z,784.48
2018-12-25T00:39:56.290Z,784.46
2018-12-25T00:40:00.482Z,784.41
2018-12-25T00:40:04.841Z,784.43
2018-12-25T00:40:09.129Z,784.43
2018-12-25T00:40:13.317Z,784.44
2018-12-25T00:40:17.604Z,784.43
2018-12-25T00:40:21.895Z,784.42
2018-12-25T00:40:26.179Z,784.37
2018-12-25T00:40:30.369Z,784.43
2018-12-25T00:40:34.663Z,784.4
2018-12-25T00:40:38.956Z,784.38
2018-12-25T00:40:43.242Z,784.39
2018-12-25T00:40:47.533Z,784.29
2018-12-25T00:40:51.820Z,784.27
2018-12-25T00:40:56.119Z,784.3
2018-12-25T00:41:00.407Z,784.33
2018-12-25T00:41:04.903Z,784.32
2018-12-25T00:41:09.102Z,784.33
2018-12-25T00:41:13.291Z,784.33
2018-12-25T00:41:17.582Z,784.28
2018-12-25T00:41:21.897Z,784.3
2018-12-25T00:41:26.188Z,784.3
2018-12-25T00:41:30.476Z,784.24
2018-12-25T00:41:34.668Z,784.31
2018-12-25T00:41:38.956Z,784.26
2018-12-25T00:41:43.239Z,784.28
2018-12-25T00:41:47.523Z,784.27
2018-12-25T00:41:51.710Z,784.26
2018-12-25T00:41:55.992Z,784.25
2018-12-25T00:42:00.276Z,784.28
2018-12-25T00:42:04.465Z,784.23
2018-12-25T00:42:08.831Z,784.26
2018-12-25T00:42:13.120Z,784.21
2018-12-25T00:42:17.407Z,784.27
2018-12-25T00:42:21.695Z,784.24
2018-12-25T00:42:25.979Z,784.23
2018-12-25T00:42:30.183Z,784.22
2018-12-25T00:42:34.469Z,784.21
2018-12-25T00:42:38.764Z,784.18
2018-12-25T00:42:43.051Z,784.25
2018-12-25T00:42:47.243Z,784.23
2018-12-25T00:42:51.541Z,784.22
2018-12-25T00:42:55.835Z,784.21
2018-12-25T00:43:00.033Z,784.24
2018-12-25T00:43:04.316Z,784.16
2018-12-25T00:43:08.601Z,784.19
2018-12-25T00:43:12.798Z,784.18
2018-12-25T00:43:17.084Z,784.17
2018-12-25T00:43:21.177Z,784.16
2018-12-25T00:43:25.461Z,784.11
2018-12-25T00:43:29.743Z,784.12
2018-12-25T00:43:34.028Z,784.16
2018-12-25T00:43:38.314Z,784.13
2018-12-25T00:43:42.599Z,784.08
2018-12-25T00:43:46.785Z,784.07
2018-12-25T00:43:51.074Z,784.12
2018-12-25T00:43:55.370Z,784.11
2018-12-25T00:43:59.658Z,784.1
2018-12-25T00:44:03.945Z,784.1
2018-12-25T00:44:08.150Z,784.1
2018-12-25T00:44:12.440Z,784.06
2018-12-25T00:44:16.723Z,784.06
2018-12-25T00:44:21.009Z,784.07
2018-12-25T00:44:25.294Z,784.09
2018-12-25T00:44:29.585Z,784.06
2018-12-25T00:44:33.888Z,784.07
2018-12-25T00:44:38.174Z,784.06
2018-12-25T00:44:42.458Z,784.04
2018-12-25T00:44:46.845Z,784.05
2018-12-25T00:44:51.137Z,784.04
2018-12-25T00:44:55.460Z,784.04
2018-12-25T00:44:59.661Z,784.03
2018-12-25T00:45:03.954Z,784.02
2018-12-25T00:45:08.267Z,784.05
2018-12-25T00:45:12.550Z,784.03
2018-12-25T00:45:19.159Z,784
2018-12-25T00:45:23.363Z,784.01
2018-12-25T00:45:27.656Z,783.97
2018-12-25T00:45:31.946Z,784
2018-12-25T00:45:36.170Z,783.96
2018-12-25T00:45:40.461Z,783.97
2018-12-25T00:45:44.654Z,783.98
2018-12-25T00:45:48.949Z,783.94
2018-12-25T00:45:53.321Z,783.99
2018-12-25T00:45:57.622Z,783.94
2018-12-25T00:46:02.028Z,783.96
2018-12-25T00:46:06.330Z,783.95
2018-12-25T00:46:10.621Z,783.94
2018-12-25T00:46:14.807Z,783.94
2018-12-25T00:46:19.096Z,783.9
2018-12-25T00:46:23.383Z,783.9
2018-12-25T00:46:27.670Z,783.92
2018-12-25T00:46:31.963Z,783.88
2018-12-25T00:46:36.157Z,783.85
2018-12-25T00:46:40.451Z,783.87
2018-12-25T00:46:44.668Z,783.86
2018-12-25T00:46:48.965Z,783.84
2018-12-25T00:46:53.259Z,783.87
2018-12-25T00:46:57.659Z,783.88
2018-12-25T00:47:01.955Z,783.89
2018-12-25T00:47:06.243Z,783.9
2018-12-25T00:47:10.542Z,783.88
2018-12-25T00:47:14.829Z,783.87
2018-12-25T00:47:19.118Z,783.89
2018-12-25T00:47:23.461Z,783.88
2018-12-25T00:47:27.746Z,783.88
2018-12-25T00:47:32.037Z,783.86
2018-12-25T00:47:36.326Z,783.88
2018-12-25T00:47:40.628Z,783.85
2018-12-25T00:47:44.818Z,783.85
2018-12-25T00:47:49.106Z,783.86
2018-12-25T00:47:53.394Z,783.79
2018-12-25T00:47:57.686Z,783.83
2018-12-25T00:48:02.076Z,783.82
2018-12-25T00:48:06.365Z,783.87
2018-12-25T00:48:10.650Z,783.81
2018-12-25T00:48:14.940Z,783.86
2018-12-25T00:48:19.130Z,783.83
2018-12-25T00:48:23.415Z,783.78
2018-12-25T00:48:27.700Z,783.78
2018-12-25T00:48:31.985Z,783.85
2018-12-25T00:48:36.270Z,783.79
2018-12-25T00:48:40.654Z,783.81
2018-12-25T00:48:44.964Z,783.81
2018-12-25T00:48:49.248Z,783.82
2018-12-25T00:48:53.534Z,783.81
2018-12-25T00:48:57.822Z,783.81
2018-12-25T00:49:02.105Z,783.81
2018-12-25T00:49:14.529Z,783.82
2018-12-25T00:49:18.943Z,783.78
2018-12-25T00:49:23.230Z,783.79
2018-12-25T00:49:27.547Z,783.79
2018-12-25T00:49:31.842Z,783.78
2018-12-25T00:49:36.126Z,783.8
2018-12-25T00:49:40.423Z,783.79
2018-12-25T00:49:44.714Z,783.79
2018-12-25T00:49:49.007Z,783.81
2018-12-25T00:49:53.205Z,783.74
2018-12-25T00:49:57.498Z,783.77
2018-12-25T00:50:01.791Z,783.8
2018-12-25T00:50:06.189Z,783.81
2018-12-25T00:50:10.476Z,783.72
2018-12-25T00:50:14.760Z,783.75
2018-12-25T00:50:19.148Z,783.76
2018-12-25T00:50:23.449Z,783.73
2018-12-25T00:50:27.735Z,783.75
2018-12-25T00:50:32.025Z,783.74
2018-12-25T00:50:36.310Z,783.75
2018-12-25T00:50:40.605Z,783.73
2018-12-25T00:50:44.889Z,783.75
2018-12-25T00:50:49.234Z,783.74
2018-12-25T00:50:53.546Z,783.72
2018-12-25T00:50:57.860Z,783.7
2018-12-25T00:51:02.348Z,783.71
2018-12-25T00:51:06.632Z,783.7
2018-12-25T00:51:10.932Z,783.71
2018-12-25T00:51:15.225Z,783.7
2018-12-25T00:51:19.415Z,783.7
2018-12-25T00:51:23.706Z,783.68
2018-12-25T00:51:28.007Z,783.67
2018-12-25T00:51:32.309Z,783.67
2018-12-25T00:51:36.601Z,783.67
2018-12-25T00:51:40.791Z,783.65
2018-12-25T00:51:45.154Z,783.67
2018-12-25T00:51:49.362Z,783.68
2018-12-25T00:51:53.658Z,783.66
2018-12-25T00:51:57.855Z,783.68
2018-12-25T00:52:02.201Z,783.67
2018-12-25T00:52:06.506Z,783.69
2018-12-25T00:52:10.791Z,783.64
2018-12-25T00:52:14.981Z,783.7
2018-12-25T00:52:19.269Z,783.69
2018-12-25T00:52:23.467Z,783.68
2018-12-25T00:52:27.758Z,783.67
2018-12-25T00:52:32.053Z,783.7
2018-12-25T00:52:36.343Z,783.68
2018-12-25T00:52:40.631Z,783.71
2018-12-25T00:52:44.922Z,783.67
2018-12-25T00:52:49.204Z,783.64
2018-12-25T00:52:53.491Z,783.66
2018-12-25T00:52:57.779Z,783.68
2018-12-25T00:53:02.076Z,783.66
2018-12-25T00:53:06.374Z,783.67
2018-12-25T00:53:10.668Z,783.65
2018-12-25T00:53:14.855Z,783.63
2018-12-25T00:53:19.154Z,783.64
2018-12-25T00:53:23.445Z,783.67
2018-12-25T00:53:27.729Z,783.63
2018-12-25T00:53:32.015Z,783.64
2018-12-25T00:53:36.210Z,783.64
2018-12-25T00:53:40.402Z,783.62
2018-12-25T00:53:44.692Z,783.62
2018-12-25T00:53:48.978Z,783.66
2018-12-25T00:53:53.266Z,783.65
2018-12-25T00:53:57.562Z,783.67
2018-12-25T00:54:02.007Z,783.63
2018-12-25T00:54:06.201Z,783.65